sensor_id;sensor_type;location;lat;lon;timestamp;P1;durP1;ratioP1;P2;durP2;ratioP2
22622;SDS011;11478;51.094;7.030;2024-03-08T00:01:03;37.67;;;21.33;;
22622;SDS011;11478;51.094;7.030;2024-03-08T00:03:29;44.80;;;23.92;;
22622;SDS011;11478;51.094;7.030;2024-03-08T00:05:56;41.10;;;22.73;;
22622;SDS011;11478;51.094;7.030;2024-03-08T00:11:02;34.20;;;21.65;;
22622;SDS011;11478;51.094;7.030;2024-03-08T00:13:28;33.33;;;21.85;;
22622;SDS011;11478;51.094;7.030;2024-03-08T00:18:24;33.63;;;22.23;;
22622;SDS011;11478;51.094;7.030;2024-03-08T00:20:51;31.45;;;20.83;;
22622;SDS011;11478;51.094;7.030;2024-03-08T00:23:17;32.40;;;22.30;;
22622;SDS011;11478;51.094;7.030;2024-03-08T00:25:43;33.28;;;22.63;;
22622;SDS011;11478;51.094;7.030;2024-03-08T00:28:09;31.50;;;21.50;;
22622;SDS011;11478;51.094;7.030;2024-03-08T00:30:38;30.50;;;21.23;;
22622;SDS011;11478;51.094;7.030;2024-03-08T00:33:04;30.05;;;19.98;;
22622;SDS011;11478;51.094;7.030;2024-03-08T00:35:31;32.85;;;21.70;;
22622;SDS011;11478;51.094;7.030;2024-03-08T00:37:56;33.40;;;21.23;;
22622;SDS011;11478;51.094;7.030;2024-03-08T00:40:27;33.63;;;21.92;;
22622;SDS011;11478;51.094;7.030;2024-03-08T00:42:54;31.48;;;21.30;;
22622;SDS011;11478;51.094;7.030;2024-03-08T00:45:19;34.28;;;22.38;;
22622;SDS011;11478;51.094;7.030;2024-03-08T00:47:45;33.63;;;22.48;;
22622;SDS011;11478;51.094;7.030;2024-03-08T00:50:25;33.22;;;22.27;;
22622;SDS011;11478;51.094;7.030;2024-03-08T00:52:52;38.33;;;22.75;;
22622;SDS011;11478;51.094;7.030;2024-03-08T00:55:23;34.45;;;22.65;;
22622;SDS011;11478;51.094;7.030;2024-03-08T00:57:49;35.15;;;22.20;;
22622;SDS011;11478;51.094;7.030;2024-03-08T01:00:16;35.33;;;23.25;;
22622;SDS011;11478;51.094;7.030;2024-03-08T01:02:42;36.60;;;23.17;;
22622;SDS011;11478;51.094;7.030;2024-03-08T01:05:10;36.92;;;23.30;;
22622;SDS011;11478;51.094;7.030;2024-03-08T01:07:36;37.88;;;23.75;;
22622;SDS011;11478;51.094;7.030;2024-03-08T01:10:12;35.08;;;22.33;;
22622;SDS011;11478;51.094;7.030;2024-03-08T01:12:38;36.30;;;23.85;;
22622;SDS011;11478;51.094;7.030;2024-03-08T01:15:04;39.00;;;24.70;;
22622;SDS011;11478;51.094;7.030;2024-03-08T01:17:38;38.33;;;22.38;;
22622;SDS011;11478;51.094;7.030;2024-03-08T01:20:04;37.88;;;24.23;;
22622;SDS011;11478;51.094;7.030;2024-03-08T01:22:37;38.42;;;24.98;;
22622;SDS011;11478;51.094;7.030;2024-03-08T01:25:04;41.72;;;26.05;;
22622;SDS011;11478;51.094;7.030;2024-03-08T01:27:34;41.85;;;25.40;;
22622;SDS011;11478;51.094;7.030;2024-03-08T01:30:02;38.05;;;24.20;;
22622;SDS011;11478;51.094;7.030;2024-03-08T01:32:29;36.75;;;23.33;;
22622;SDS011;11478;51.094;7.030;2024-03-08T01:34:54;36.88;;;24.27;;
22622;SDS011;11478;51.094;7.030;2024-03-08T01:37:21;39.03;;;24.55;;
22622;SDS011;11478;51.094;7.030;2024-03-08T01:39:46;41.05;;;25.10;;
22622;SDS011;11478;51.094;7.030;2024-03-08T01:42:16;43.10;;;27.40;;
22622;SDS011;11478;51.094;7.030;2024-03-08T01:44:43;45.08;;;27.58;;
22622;SDS011;11478;51.094;7.030;2024-03-08T01:47:13;42.05;;;27.23;;
22622;SDS011;11478;51.094;7.030;2024-03-08T01:49:39;41.08;;;25.10;;
22622;SDS011;11478;51.094;7.030;2024-03-08T01:52:08;43.72;;;26.83;;
22622;SDS011;11478;51.094;7.030;2024-03-08T01:54:34;47.60;;;27.65;;
22622;SDS011;11478;51.094;7.030;2024-03-08T01:57:05;39.63;;;26.40;;
22622;SDS011;11478;51.094;7.030;2024-03-08T01:59:31;43.13;;;26.50;;
22622;SDS011;11478;51.094;7.030;2024-03-08T02:01:59;42.95;;;26.83;;
22622;SDS011;11478;51.094;7.030;2024-03-08T02:04:31;44.97;;;26.85;;
22622;SDS011;11478;51.094;7.030;2024-03-08T02:06:57;42.30;;;25.35;;
22622;SDS011;11478;51.094;7.030;2024-03-08T02:09:23;42.30;;;25.50;;
22622;SDS011;11478;51.094;7.030;2024-03-08T02:11:51;38.35;;;24.80;;
22622;SDS011;11478;51.094;7.030;2024-03-08T02:14:18;40.53;;;24.95;;
22622;SDS011;11478;51.094;7.030;2024-03-08T02:16:44;38.90;;;25.05;;
22622;SDS011;11478;51.094;7.030;2024-03-08T02:19:10;40.17;;;25.75;;
22622;SDS011;11478;51.094;7.030;2024-03-08T02:21:36;42.03;;;25.95;;
22622;SDS011;11478;51.094;7.030;2024-03-08T02:24:03;38.78;;;25.00;;
22622;SDS011;11478;51.094;7.030;2024-03-08T02:26:30;41.30;;;25.38;;
22622;SDS011;11478;51.094;7.030;2024-03-08T02:28:56;36.92;;;24.80;;
22622;SDS011;11478;51.094;7.030;2024-03-08T02:31:22;39.95;;;26.35;;
22622;SDS011;11478;51.094;7.030;2024-03-08T02:33:48;42.05;;;25.42;;
22622;SDS011;11478;51.094;7.030;2024-03-08T02:36:13;40.33;;;25.73;;
22622;SDS011;11478;51.094;7.030;2024-03-08T02:38:47;37.40;;;24.27;;
22622;SDS011;11478;51.094;7.030;2024-03-08T02:41:12;37.67;;;24.00;;
22622;SDS011;11478;51.094;7.030;2024-03-08T02:43:39;36.55;;;23.35;;
22622;SDS011;11478;51.094;7.030;2024-03-08T02:46:05;38.30;;;24.65;;
22622;SDS011;11478;51.094;7.030;2024-03-08T02:48:32;37.60;;;23.73;;
22622;SDS011;11478;51.094;7.030;2024-03-08T02:50:58;33.95;;;22.33;;
22622;SDS011;11478;51.094;7.030;2024-03-08T02:53:24;33.75;;;22.85;;
22622;SDS011;11478;51.094;7.030;2024-03-08T02:55:50;34.78;;;22.85;;
22622;SDS011;11478;51.094;7.030;2024-03-08T02:58:16;36.65;;;24.48;;
22622;SDS011;11478;51.094;7.030;2024-03-08T03:00:43;38.88;;;22.52;;
22622;SDS011;11478;51.094;7.030;2024-03-08T03:03:10;35.92;;;22.35;;
22622;SDS011;11478;51.094;7.030;2024-03-08T03:05:36;34.50;;;22.40;;
22622;SDS011;11478;51.094;7.030;2024-03-08T03:08:02;33.67;;;22.55;;
22622;SDS011;11478;51.094;7.030;2024-03-08T03:10:34;32.78;;;21.98;;
22622;SDS011;11478;51.094;7.030;2024-03-08T03:13:01;31.90;;;21.48;;
22622;SDS011;11478;51.094;7.030;2024-03-08T03:15:27;33.58;;;21.10;;
22622;SDS011;11478;51.094;7.030;2024-03-08T03:17:59;33.58;;;21.10;;
22622;SDS011;11478;51.094;7.030;2024-03-08T03:20:25;33.17;;;20.92;;
22622;SDS011;11478;51.094;7.030;2024-03-08T03:22:59;33.72;;;20.55;;
22622;SDS011;11478;51.094;7.030;2024-03-08T03:25:26;34.05;;;21.63;;
22622;SDS011;11478;51.094;7.030;2024-03-08T03:28:11;34.33;;;21.27;;
22622;SDS011;11478;51.094;7.030;2024-03-08T03:30:39;34.75;;;20.83;;
22622;SDS011;11478;51.094;7.030;2024-03-08T03:33:07;31.98;;;20.40;;
22622;SDS011;11478;51.094;7.030;2024-03-08T03:35:33;30.33;;;20.05;;
22622;SDS011;11478;51.094;7.030;2024-03-08T03:37:59;30.77;;;20.98;;
22622;SDS011;11478;51.094;7.030;2024-03-08T03:40:34;32.35;;;21.30;;
22622;SDS011;11478;51.094;7.030;2024-03-08T03:43:08;33.95;;;20.30;;
22622;SDS011;11478;51.094;7.030;2024-03-08T03:45:34;32.65;;;21.17;;
22622;SDS011;11478;51.094;7.030;2024-03-08T03:48:04;31.45;;;20.05;;
22622;SDS011;11478;51.094;7.030;2024-03-08T03:50:31;31.70;;;20.55;;
22622;SDS011;11478;51.094;7.030;2024-03-08T03:53:01;33.35;;;21.90;;
22622;SDS011;11478;51.094;7.030;2024-03-08T03:55:33;32.83;;;21.13;;
22622;SDS011;11478;51.094;7.030;2024-03-08T03:57:59;30.33;;;20.42;;
22622;SDS011;11478;51.094;7.030;2024-03-08T04:00:26;35.28;;;20.35;;
22622;SDS011;11478;51.094;7.030;2024-03-08T04:02:58;35.55;;;21.13;;
22622;SDS011;11478;51.094;7.030;2024-03-08T04:05:25;31.83;;;20.95;;
22622;SDS011;11478;51.094;7.030;2024-03-08T04:07:52;35.25;;;20.85;;
22622;SDS011;11478;51.094;7.030;2024-03-08T04:10:17;31.85;;;20.40;;
22622;SDS011;11478;51.094;7.030;2024-03-08T04:12:43;33.25;;;21.17;;
22622;SDS011;11478;51.094;7.030;2024-03-08T04:15:11;33.38;;;21.45;;
22622;SDS011;11478;51.094;7.030;2024-03-08T04:20:15;57.42;;;28.63;;
22622;SDS011;11478;51.094;7.030;2024-03-08T04:22:58;33.22;;;21.38;;
22622;SDS011;11478;51.094;7.030;2024-03-08T04:25:24;34.05;;;20.60;;
22622;SDS011;11478;51.094;7.030;2024-03-08T04:27:53;33.65;;;21.60;;
22622;SDS011;11478;51.094;7.030;2024-03-08T04:30:19;35.90;;;21.85;;
22622;SDS011;11478;51.094;7.030;2024-03-08T04:32:47;31.50;;;20.48;;
22622;SDS011;11478;51.094;7.030;2024-03-08T04:35:13;33.80;;;20.92;;
22622;SDS011;11478;51.094;7.030;2024-03-08T04:37:47;35.22;;;21.40;;
22622;SDS011;11478;51.094;7.030;2024-03-08T04:40:12;39.17;;;22.75;;
22622;SDS011;11478;51.094;7.030;2024-03-08T04:45:15;36.45;;;21.35;;
22622;SDS011;11478;51.094;7.030;2024-03-08T04:47:42;32.47;;;20.77;;
22622;SDS011;11478;51.094;7.030;2024-03-08T04:50:08;44.35;;;23.90;;
22622;SDS011;11478;51.094;7.030;2024-03-08T04:52:35;33.40;;;20.40;;
22622;SDS011;11478;51.094;7.030;2024-03-08T04:55:01;33.78;;;21.58;;
22622;SDS011;11478;51.094;7.030;2024-03-08T04:57:30;39.33;;;22.55;;
22622;SDS011;11478;51.094;7.030;2024-03-08T04:59:57;34.80;;;20.88;;
22622;SDS011;11478;51.094;7.030;2024-03-08T05:02:24;38.35;;;22.00;;
22622;SDS011;11478;51.094;7.030;2024-03-08T05:04:50;36.50;;;21.75;;
22622;SDS011;11478;51.094;7.030;2024-03-08T05:07:16;34.03;;;21.98;;
22622;SDS011;11478;51.094;7.030;2024-03-08T05:09:47;36.10;;;21.77;;
22622;SDS011;11478;51.094;7.030;2024-03-08T05:12:17;35.25;;;21.83;;
22622;SDS011;11478;51.094;7.030;2024-03-08T05:14:44;34.00;;;21.40;;
22622;SDS011;11478;51.094;7.030;2024-03-08T05:17:19;35.67;;;21.52;;
22622;SDS011;11478;51.094;7.030;2024-03-08T05:19:45;33.83;;;21.20;;
22622;SDS011;11478;51.094;7.030;2024-03-08T05:22:11;38.22;;;22.80;;
22622;SDS011;11478;51.094;7.030;2024-03-08T05:24:36;33.72;;;20.88;;
22622;SDS011;11478;51.094;7.030;2024-03-08T05:27:05;33.70;;;21.15;;
22622;SDS011;11478;51.094;7.030;2024-03-08T05:29:31;35.95;;;21.88;;
22622;SDS011;11478;51.094;7.030;2024-03-08T05:31:59;33.05;;;20.95;;
22622;SDS011;11478;51.094;7.030;2024-03-08T05:34:25;34.88;;;21.35;;
22622;SDS011;11478;51.094;7.030;2024-03-08T05:39:27;36.60;;;22.92;;
22622;SDS011;11478;51.094;7.030;2024-03-08T05:41:53;33.15;;;20.98;;
22622;SDS011;11478;51.094;7.030;2024-03-08T05:44:20;38.33;;;22.25;;
22622;SDS011;11478;51.094;7.030;2024-03-08T05:46:46;35.42;;;23.13;;
22622;SDS011;11478;51.094;7.030;2024-03-08T05:49:12;33.25;;;21.48;;
22622;SDS011;11478;51.094;7.030;2024-03-08T05:51:39;33.63;;;20.98;;
22622;SDS011;11478;51.094;7.030;2024-03-08T05:54:09;35.05;;;21.17;;
22622;SDS011;11478;51.094;7.030;2024-03-08T05:56:36;32.67;;;21.52;;
22622;SDS011;11478;51.094;7.030;2024-03-08T05:59:03;36.35;;;21.92;;
22622;SDS011;11478;51.094;7.030;2024-03-08T06:01:30;32.03;;;21.90;;
22622;SDS011;11478;51.094;7.030;2024-03-08T06:03:57;34.63;;;21.42;;
22622;SDS011;11478;51.094;7.030;2024-03-08T06:06:24;36.28;;;22.90;;
22622;SDS011;11478;51.094;7.030;2024-03-08T06:08:50;37.47;;;22.77;;
22622;SDS011;11478;51.094;7.030;2024-03-08T06:11:17;32.80;;;22.17;;
22622;SDS011;11478;51.094;7.030;2024-03-08T06:13:44;35.67;;;22.25;;
22622;SDS011;11478;51.094;7.030;2024-03-08T06:16:11;35.92;;;23.13;;
22622;SDS011;11478;51.094;7.030;2024-03-08T06:18:43;36.13;;;22.42;;
22622;SDS011;11478;51.094;7.030;2024-03-08T06:21:09;33.28;;;21.52;;
22622;SDS011;11478;51.094;7.030;2024-03-08T06:23:38;35.70;;;22.95;;
22622;SDS011;11478;51.094;7.030;2024-03-08T06:26:04;34.60;;;23.02;;
22622;SDS011;11478;51.094;7.030;2024-03-08T06:28:30;35.13;;;22.85;;
22622;SDS011;11478;51.094;7.030;2024-03-08T06:30:58;34.88;;;23.20;;
22622;SDS011;11478;51.094;7.030;2024-03-08T06:33:25;35.10;;;21.55;;
22622;SDS011;11478;51.094;7.030;2024-03-08T06:35:54;38.00;;;22.88;;
22622;SDS011;11478;51.094;7.030;2024-03-08T06:38:26;32.92;;;21.80;;
22622;SDS011;11478;51.094;7.030;2024-03-08T06:40:52;43.88;;;24.83;;
22622;SDS011;11478;51.094;7.030;2024-03-08T06:43:19;37.80;;;23.08;;
22622;SDS011;11478;51.094;7.030;2024-03-08T06:45:46;37.47;;;22.73;;
22622;SDS011;11478;51.094;7.030;2024-03-08T06:51:02;39.40;;;23.15;;
22622;SDS011;11478;51.094;7.030;2024-03-08T06:53:29;36.47;;;22.80;;
22622;SDS011;11478;51.094;7.030;2024-03-08T06:55:55;36.75;;;23.15;;
22622;SDS011;11478;51.094;7.030;2024-03-08T06:58:22;38.55;;;23.65;;
22622;SDS011;11478;51.094;7.030;2024-03-08T07:00:48;35.17;;;22.10;;
22622;SDS011;11478;51.094;7.030;2024-03-08T07:03:24;37.20;;;22.52;;
22622;SDS011;11478;51.094;7.030;2024-03-08T07:05:51;34.03;;;21.88;;
22622;SDS011;11478;51.094;7.030;2024-03-08T07:08:23;36.70;;;23.08;;
22622;SDS011;11478;51.094;7.030;2024-03-08T07:10:49;37.92;;;21.52;;
22622;SDS011;11478;51.094;7.030;2024-03-08T07:13:28;32.50;;;21.23;;
22622;SDS011;11478;51.094;7.030;2024-03-08T07:15:56;32.78;;;21.13;;
22622;SDS011;11478;51.094;7.030;2024-03-08T07:18:24;31.60;;;20.85;;
22622;SDS011;11478;51.094;7.030;2024-03-08T07:20:51;34.15;;;21.35;;
22622;SDS011;11478;51.094;7.030;2024-03-08T07:23:16;35.60;;;22.10;;
22622;SDS011;11478;51.094;7.030;2024-03-08T07:26:09;32.33;;;20.83;;
22622;SDS011;11478;51.094;7.030;2024-03-08T07:28:39;33.30;;;21.02;;
22622;SDS011;11478;51.094;7.030;2024-03-08T07:31:05;33.55;;;21.65;;
22622;SDS011;11478;51.094;7.030;2024-03-08T07:33:40;33.70;;;19.95;;
22622;SDS011;11478;51.094;7.030;2024-03-08T07:36:06;33.25;;;19.80;;
22622;SDS011;11478;51.094;7.030;2024-03-08T07:38:49;27.10;;;18.08;;
22622;SDS011;11478;51.094;7.030;2024-03-08T07:41:15;27.20;;;17.90;;
22622;SDS011;11478;51.094;7.030;2024-03-08T07:43:43;28.05;;;18.67;;
22622;SDS011;11478;51.094;7.030;2024-03-08T07:46:09;27.25;;;17.90;;
22622;SDS011;11478;51.094;7.030;2024-03-08T07:48:35;30.40;;;19.13;;
22622;SDS011;11478;51.094;7.030;2024-03-08T07:51:02;28.10;;;18.55;;
22622;SDS011;11478;51.094;7.030;2024-03-08T07:53:29;27.38;;;18.60;;
22622;SDS011;11478;51.094;7.030;2024-03-08T07:55:55;25.60;;;17.65;;
22622;SDS011;11478;51.094;7.030;2024-03-08T07:58:21;29.85;;;17.75;;
22622;SDS011;11478;51.094;7.030;2024-03-08T08:00:47;26.75;;;17.73;;
22622;SDS011;11478;51.094;7.030;2024-03-08T08:03:14;26.15;;;17.70;;
22622;SDS011;11478;51.094;7.030;2024-03-08T08:05:41;26.38;;;17.15;;
22622;SDS011;11478;51.094;7.030;2024-03-08T08:08:07;25.20;;;16.60;;
22622;SDS011;11478;51.094;7.030;2024-03-08T08:10:47;25.85;;;17.33;;
22622;SDS011;11478;51.094;7.030;2024-03-08T08:13:14;25.55;;;17.48;;
22622;SDS011;11478;51.094;7.030;2024-03-08T08:15:42;24.90;;;17.55;;
22622;SDS011;11478;51.094;7.030;2024-03-08T08:18:11;23.60;;;15.45;;
22622;SDS011;11478;51.094;7.030;2024-03-08T08:23:08;24.05;;;16.92;;
22622;SDS011;11478;51.094;7.030;2024-03-08T08:25:41;23.20;;;16.15;;
22622;SDS011;11478;51.094;7.030;2024-03-08T08:28:10;23.85;;;17.45;;
22622;SDS011;11478;51.094;7.030;2024-03-08T08:30:38;23.92;;;16.90;;
22622;SDS011;11478;51.094;7.030;2024-03-08T08:33:04;25.73;;;17.42;;
22622;SDS011;11478;51.094;7.030;2024-03-08T08:35:33;26.77;;;17.85;;
22622;SDS011;11478;51.094;7.030;2024-03-08T08:37:59;22.45;;;16.73;;
22622;SDS011;11478;51.094;7.030;2024-03-08T08:40:26;26.63;;;16.88;;
22622;SDS011;11478;51.094;7.030;2024-03-08T08:42:52;25.75;;;16.63;;
22622;SDS011;11478;51.094;7.030;2024-03-08T08:45:18;24.92;;;17.15;;
22622;SDS011;11478;51.094;7.030;2024-03-08T08:47:44;22.25;;;16.40;;
22622;SDS011;11478;51.094;7.030;2024-03-08T08:50:12;23.73;;;17.00;;
22622;SDS011;11478;51.094;7.030;2024-03-08T08:52:39;23.08;;;16.05;;
22622;SDS011;11478;51.094;7.030;2024-03-08T08:55:05;23.20;;;16.50;;
22622;SDS011;11478;51.094;7.030;2024-03-08T08:57:38;23.40;;;15.95;;
22622;SDS011;11478;51.094;7.030;2024-03-08T09:00:04;21.05;;;15.52;;
22622;SDS011;11478;51.094;7.030;2024-03-08T09:02:32;22.25;;;16.17;;
22622;SDS011;11478;51.094;7.030;2024-03-08T09:05:02;23.52;;;16.20;;
22622;SDS011;11478;51.094;7.030;2024-03-08T09:07:29;22.30;;;15.82;;
22622;SDS011;11478;51.094;7.030;2024-03-08T09:09:55;21.52;;;15.55;;
22622;SDS011;11478;51.094;7.030;2024-03-08T09:12:23;22.83;;;15.93;;
22622;SDS011;11478;51.094;7.030;2024-03-08T09:14:49;24.73;;;16.35;;
22622;SDS011;11478;51.094;7.030;2024-03-08T09:17:15;24.02;;;16.70;;
22622;SDS011;11478;51.094;7.030;2024-03-08T09:19:49;22.98;;;15.13;;
22622;SDS011;11478;51.094;7.030;2024-03-08T09:22:15;22.60;;;15.65;;
22622;SDS011;11478;51.094;7.030;2024-03-08T09:24:41;20.77;;;15.38;;
22622;SDS011;11478;51.094;7.030;2024-03-08T09:27:09;22.63;;;15.35;;
22622;SDS011;11478;51.094;7.030;2024-03-08T09:29:35;21.08;;;14.45;;
22622;SDS011;11478;51.094;7.030;2024-03-08T09:32:01;22.08;;;14.80;;
22622;SDS011;11478;51.094;7.030;2024-03-08T09:34:28;22.70;;;15.95;;
22622;SDS011;11478;51.094;7.030;2024-03-08T09:36:59;20.55;;;14.48;;
22622;SDS011;11478;51.094;7.030;2024-03-08T09:39:25;21.08;;;14.93;;
22622;SDS011;11478;51.094;7.030;2024-03-08T09:41:52;21.40;;;14.38;;
22622;SDS011;11478;51.094;7.030;2024-03-08T09:44:18;20.52;;;14.45;;
22622;SDS011;11478;51.094;7.030;2024-03-08T09:46:52;18.73;;;13.95;;
22622;SDS011;11478;51.094;7.030;2024-03-08T09:49:18;21.15;;;14.15;;
22622;SDS011;11478;51.094;7.030;2024-03-08T09:51:53;20.23;;;14.68;;
22622;SDS011;11478;51.094;7.030;2024-03-08T09:54:20;19.70;;;14.20;;
22622;SDS011;11478;51.094;7.030;2024-03-08T09:56:47;18.83;;;14.05;;
22622;SDS011;11478;51.094;7.030;2024-03-08T09:59:16;20.08;;;13.85;;
22622;SDS011;11478;51.094;7.030;2024-03-08T10:02:05;21.40;;;14.02;;
22622;SDS011;11478;51.094;7.030;2024-03-08T10:04:36;21.08;;;14.52;;
22622;SDS011;11478;51.094;7.030;2024-03-08T10:07:05;19.33;;;14.45;;
22622;SDS011;11478;51.094;7.030;2024-03-08T10:09:32;21.15;;;14.05;;
22622;SDS011;11478;51.094;7.030;2024-03-08T10:11:58;17.92;;;12.98;;
22622;SDS011;11478;51.094;7.030;2024-03-08T10:14:27;18.05;;;12.63;;
22622;SDS011;11478;51.094;7.030;2024-03-08T10:16:54;18.30;;;12.85;;
22622;SDS011;11478;51.094;7.030;2024-03-08T10:19:24;18.95;;;13.43;;
22622;SDS011;11478;51.094;7.030;2024-03-08T10:22:00;17.83;;;12.65;;
22622;SDS011;11478;51.094;7.030;2024-03-08T10:29:32;15.15;;;11.32;;
22622;SDS011;11478;51.094;7.030;2024-03-08T10:31:59;14.43;;;10.77;;
22622;SDS011;11478;51.094;7.030;2024-03-08T10:34:26;16.17;;;10.77;;
22622;SDS011;11478;51.094;7.030;2024-03-08T10:36:59;15.13;;;10.45;;
22622;SDS011;11478;51.094;7.030;2024-03-08T10:39:36;14.18;;;10.52;;
22622;SDS011;11478;51.094;7.030;2024-03-08T10:42:02;14.30;;;9.88;;
22622;SDS011;11478;51.094;7.030;2024-03-08T10:49:38;16.50;;;10.70;;
22622;SDS011;11478;51.094;7.030;2024-03-08T10:52:15;13.45;;;10.43;;
22622;SDS011;11478;51.094;7.030;2024-03-08T10:54:45;15.68;;;9.57;;
22622;SDS011;11478;51.094;7.030;2024-03-08T10:57:18;14.13;;;10.13;;
22622;SDS011;11478;51.094;7.030;2024-03-08T10:59:50;14.73;;;10.82;;
22622;SDS011;11478;51.094;7.030;2024-03-08T11:02:20;14.43;;;10.20;;
22622;SDS011;11478;51.094;7.030;2024-03-08T11:04:49;14.85;;;10.90;;
22622;SDS011;11478;51.094;7.030;2024-03-08T11:07:16;15.32;;;10.50;;
22622;SDS011;11478;51.094;7.030;2024-03-08T11:09:47;17.85;;;10.43;;
22622;SDS011;11478;51.094;7.030;2024-03-08T11:19:59;14.48;;;10.70;;
22622;SDS011;11478;51.094;7.030;2024-03-08T11:22:32;13.52;;;9.50;;
22622;SDS011;11478;51.094;7.030;2024-03-08T11:25:08;14.32;;;9.88;;
22622;SDS011;11478;51.094;7.030;2024-03-08T11:27:35;13.73;;;10.15;;
22622;SDS011;11478;51.094;7.030;2024-03-08T11:30:05;13.65;;;9.85;;
22622;SDS011;11478;51.094;7.030;2024-03-08T11:32:44;13.85;;;9.75;;
22622;SDS011;11478;51.094;7.030;2024-03-08T11:35:20;13.25;;;9.57;;
22622;SDS011;11478;51.094;7.030;2024-03-08T11:37:48;14.68;;;10.30;;
22622;SDS011;11478;51.094;7.030;2024-03-08T11:40:17;14.52;;;9.68;;
22622;SDS011;11478;51.094;7.030;2024-03-08T11:42:48;13.15;;;9.88;;
22622;SDS011;11478;51.094;7.030;2024-03-08T11:45:14;14.73;;;9.45;;
22622;SDS011;11478;51.094;7.030;2024-03-08T11:47:44;16.95;;;10.38;;
22622;SDS011;11478;51.094;7.030;2024-03-08T11:50:14;14.88;;;10.15;;
22622;SDS011;11478;51.094;7.030;2024-03-08T11:52:41;12.80;;;9.68;;
22622;SDS011;11478;51.094;7.030;2024-03-08T11:55:08;16.58;;;9.82;;
22622;SDS011;11478;51.094;7.030;2024-03-08T11:57:37;12.73;;;9.18;;
22622;SDS011;11478;51.094;7.030;2024-03-08T12:00:04;12.95;;;9.35;;
22622;SDS011;11478;51.094;7.030;2024-03-08T12:02:33;12.73;;;10.18;;
22622;SDS011;11478;51.094;7.030;2024-03-08T12:07:41;12.85;;;9.60;;
22622;SDS011;11478;51.094;7.030;2024-03-08T12:10:18;12.82;;;9.15;;
22622;SDS011;11478;51.094;7.030;2024-03-08T12:12:53;14.13;;;9.13;;
22622;SDS011;11478;51.094;7.030;2024-03-08T12:15:23;11.80;;;8.88;;
22622;SDS011;11478;51.094;7.030;2024-03-08T12:17:52;14.75;;;10.05;;
22622;SDS011;11478;51.094;7.030;2024-03-08T12:20:21;13.32;;;9.25;;
22622;SDS011;11478;51.094;7.030;2024-03-08T12:22:53;13.27;;;9.32;;
22622;SDS011;11478;51.094;7.030;2024-03-08T12:25:21;14.27;;;9.13;;
22622;SDS011;11478;51.094;7.030;2024-03-08T12:27:48;13.30;;;9.85;;
22622;SDS011;11478;51.094;7.030;2024-03-08T12:30:24;12.38;;;9.00;;
22622;SDS011;11478;51.094;7.030;2024-03-08T12:32:59;11.23;;;8.77;;
22622;SDS011;11478;51.094;7.030;2024-03-08T12:35:29;14.25;;;9.63;;
22622;SDS011;11478;51.094;7.030;2024-03-08T12:37:59;12.90;;;9.55;;
22622;SDS011;11478;51.094;7.030;2024-03-08T12:40:29;12.65;;;9.38;;
22622;SDS011;11478;51.094;7.030;2024-03-08T12:42:57;11.80;;;8.60;;
22622;SDS011;11478;51.094;7.030;2024-03-08T12:45:24;12.95;;;8.98;;
22622;SDS011;11478;51.094;7.030;2024-03-08T12:47:54;13.00;;;8.90;;
22622;SDS011;11478;51.094;7.030;2024-03-08T12:50:24;11.55;;;8.68;;
22622;SDS011;11478;51.094;7.030;2024-03-08T12:52:51;12.77;;;9.25;;
22622;SDS011;11478;51.094;7.030;2024-03-08T12:55:23;12.73;;;8.95;;
22622;SDS011;11478;51.094;7.030;2024-03-08T12:57:49;12.27;;;8.90;;
22622;SDS011;11478;51.094;7.030;2024-03-08T13:00:15;15.57;;;9.73;;
22622;SDS011;11478;51.094;7.030;2024-03-08T13:02:49;11.95;;;8.90;;
22622;SDS011;11478;51.094;7.030;2024-03-08T13:05:16;11.70;;;9.15;;
22622;SDS011;11478;51.094;7.030;2024-03-08T13:07:42;13.32;;;9.48;;
22622;SDS011;11478;51.094;7.030;2024-03-08T13:10:15;13.07;;;9.40;;
22622;SDS011;11478;51.094;7.030;2024-03-08T13:12:44;12.65;;;9.25;;
22622;SDS011;11478;51.094;7.030;2024-03-08T13:15:13;12.68;;;8.32;;
22622;SDS011;11478;51.094;7.030;2024-03-08T13:17:48;12.18;;;9.02;;
22622;SDS011;11478;51.094;7.030;2024-03-08T13:20:15;13.70;;;8.70;;
22622;SDS011;11478;51.094;7.030;2024-03-08T13:22:42;12.23;;;8.82;;
22622;SDS011;11478;51.094;7.030;2024-03-08T13:25:08;12.60;;;9.27;;
22622;SDS011;11478;51.094;7.030;2024-03-08T13:27:41;11.60;;;8.50;;
22622;SDS011;11478;51.094;7.030;2024-03-08T13:30:11;12.38;;;9.27;;
22622;SDS011;11478;51.094;7.030;2024-03-08T13:32:39;12.15;;;8.98;;
22622;SDS011;11478;51.094;7.030;2024-03-08T13:35:08;12.35;;;8.23;;
22622;SDS011;11478;51.094;7.030;2024-03-08T13:37:41;13.30;;;8.73;;
22622;SDS011;11478;51.094;7.030;2024-03-08T13:40:08;11.40;;;8.95;;
22622;SDS011;11478;51.094;7.030;2024-03-08T13:42:42;12.82;;;9.35;;
22622;SDS011;11478;51.094;7.030;2024-03-08T13:45:08;11.90;;;8.90;;
22622;SDS011;11478;51.094;7.030;2024-03-08T13:47:37;11.50;;;8.70;;
22622;SDS011;11478;51.094;7.030;2024-03-08T13:50:08;11.57;;;8.77;;
22622;SDS011;11478;51.094;7.030;2024-03-08T13:52:39;11.65;;;8.82;;
22622;SDS011;11478;51.094;7.030;2024-03-08T13:55:05;17.60;;;9.35;;
22622;SDS011;11478;51.094;7.030;2024-03-08T13:57:32;14.70;;;9.48;;
22622;SDS011;11478;51.094;7.030;2024-03-08T14:00:11;13.45;;;9.55;;
22622;SDS011;11478;51.094;7.030;2024-03-08T14:02:38;13.07;;;9.60;;
22622;SDS011;11478;51.094;7.030;2024-03-08T14:10:09;14.27;;;9.70;;
22622;SDS011;11478;51.094;7.030;2024-03-08T14:12:35;13.80;;;10.07;;
22622;SDS011;11478;51.094;7.030;2024-03-08T14:15:03;13.98;;;10.65;;
22622;SDS011;11478;51.094;7.030;2024-03-08T14:17:32;17.48;;;10.77;;
22622;SDS011;11478;51.094;7.030;2024-03-08T14:19:58;15.77;;;10.63;;
22622;SDS011;11478;51.094;7.030;2024-03-08T14:22:28;16.25;;;10.30;;
22622;SDS011;11478;51.094;7.030;2024-03-08T14:24:56;14.32;;;10.55;;
22622;SDS011;11478;51.094;7.030;2024-03-08T14:27:25;16.45;;;11.50;;
22622;SDS011;11478;51.094;7.030;2024-03-08T14:29:52;16.58;;;11.15;;
22622;SDS011;11478;51.094;7.030;2024-03-08T14:32:22;16.42;;;10.57;;
22622;SDS011;11478;51.094;7.030;2024-03-08T14:34:48;15.38;;;11.70;;
22622;SDS011;11478;51.094;7.030;2024-03-08T14:37:16;17.38;;;11.25;;
22622;SDS011;11478;51.094;7.030;2024-03-08T14:39:43;17.73;;;11.30;;
22622;SDS011;11478;51.094;7.030;2024-03-08T14:42:10;15.93;;;11.93;;
22622;SDS011;11478;51.094;7.030;2024-03-08T14:44:38;17.45;;;11.35;;
22622;SDS011;11478;51.094;7.030;2024-03-08T14:47:04;16.45;;;11.70;;
22622;SDS011;11478;51.094;7.030;2024-03-08T14:49:32;14.60;;;10.43;;
22622;SDS011;11478;51.094;7.030;2024-03-08T14:52:01;14.88;;;10.77;;
22622;SDS011;11478;51.094;7.030;2024-03-08T14:54:27;16.23;;;11.15;;
22622;SDS011;11478;51.094;7.030;2024-03-08T14:56:54;16.50;;;11.73;;
22622;SDS011;11478;51.094;7.030;2024-03-08T14:59:21;16.92;;;11.30;;
22622;SDS011;11478;51.094;7.030;2024-03-08T15:01:48;17.00;;;11.40;;
22622;SDS011;11478;51.094;7.030;2024-03-08T15:04:13;15.75;;;10.93;;
22622;SDS011;11478;51.094;7.030;2024-03-08T15:09:13;15.20;;;10.48;;
22622;SDS011;11478;51.094;7.030;2024-03-08T15:11:48;16.73;;;11.35;;
22622;SDS011;11478;51.094;7.030;2024-03-08T15:14:19;16.02;;;10.55;;
22622;SDS011;11478;51.094;7.030;2024-03-08T15:16:46;16.38;;;10.88;;